createdAt,value
2023-04-22T00:01:15.330Z,8.40
2023-04-22T00:03:44.755Z,7.70
2023-04-22T00:06:13.371Z,8.90
2023-04-22T00:08:41.420Z,8.70
2023-04-22T00:11:09.371Z,11.50
2023-04-22T00:13:38.551Z,11.70
2023-04-22T00:16:06.914Z,10.70
2023-04-22T00:18:36.304Z,11.20
2023-04-22T00:21:04.415Z,10.10
2023-04-22T00:23:33.024Z,9.10
2023-04-22T00:26:01.199Z,9.00
2023-04-22T00:28:29.276Z,10.60
2023-04-22T00:30:58.912Z,9.80
2023-04-22T00:33:27.388Z,8.60
2023-04-22T00:35:55.366Z,10.40
2023-04-22T00:38:23.619Z,9.00
2023-04-22T00:40:51.669Z,9.60
2023-04-22T00:43:19.723Z,9.40
2023-04-22T00:45:47.961Z,8.10
2023-04-22T00:48:16.150Z,9.20
2023-04-22T00:50:44.147Z,9.60
2023-04-22T00:53:13.381Z,9.90
2023-04-22T00:55:41.345Z,9.90
2023-04-22T00:58:09.306Z,10.70
2023-04-22T01:00:37.297Z,9.90
2023-04-22T01:03:05.500Z,10.40
2023-04-22T01:05:33.656Z,9.60
2023-04-22T01:08:02.338Z,9.20
2023-04-22T01:10:30.658Z,9.10
2023-04-22T01:12:58.750Z,9.20
2023-04-22T01:15:26.904Z,9.60
2023-04-22T01:17:55.188Z,9.60
2023-04-22T01:20:23.575Z,9.60
2023-04-22T01:22:52.419Z,9.80
2023-04-22T01:25:20.349Z,10.10
2023-04-22T01:27:48.433Z,9.80
2023-04-22T01:30:16.606Z,9.40
2023-04-22T01:32:44.700Z,9.80
2023-04-22T01:35:12.840Z,9.30
2023-04-22T01:37:40.874Z,9.40
2023-04-22T01:40:09.648Z,10.00
2023-04-22T01:42:38.550Z,10.30
2023-04-22T01:45:07.706Z,9.40
2023-04-22T01:47:36.426Z,10.10
2023-04-22T01:50:04.734Z,9.70
2023-04-22T01:52:33.041Z,9.20
2023-04-22T01:55:01.676Z,10.70
2023-04-22T01:57:29.906Z,12.50
2023-04-22T01:59:58.730Z,10.80
2023-04-22T02:02:26.922Z,10.10
2023-04-22T02:04:55.104Z,9.90
2023-04-22T02:07:23.190Z,10.90
2023-04-22T02:09:51.188Z,10.60
2023-04-22T02:12:19.225Z,11.10
2023-04-22T02:14:47.197Z,8.80
2023-04-22T02:17:17.760Z,10.20
2023-04-22T02:22:14.773Z,9.50
2023-04-22T02:24:43.300Z,9.60
2023-04-22T02:27:11.327Z,10.30
2023-04-22T02:29:39.697Z,10.60
2023-04-22T02:32:08.239Z,10.40
2023-04-22T02:34:37.036Z,11.20
2023-04-22T02:37:05.733Z,10.40
2023-04-22T02:39:34.831Z,10.40
2023-04-22T02:42:03.058Z,9.50
2023-04-22T02:44:31.083Z,8.90
2023-04-22T02:46:59.199Z,9.50
2023-04-22T02:49:27.190Z,11.70
2023-04-22T02:51:55.288Z,9.80
2023-04-22T02:54:23.318Z,10.60
2023-04-22T02:56:51.277Z,10.30
2023-04-22T02:59:19.259Z,10.10
2023-04-22T03:01:47.668Z,9.80
2023-04-22T03:04:25.886Z,10.40
2023-04-22T03:06:54.597Z,11.20
2023-04-22T03:09:22.601Z,10.90
2023-04-22T03:11:50.560Z,10.50
2023-04-22T03:14:18.538Z,10.50
2023-04-22T03:16:46.582Z,11.70
2023-04-22T03:21:46.180Z,11.50
2023-04-22T03:24:14.278Z,11.20
2023-04-22T03:26:45.590Z,12.80
2023-04-22T03:29:13.704Z,11.20
2023-04-22T03:31:43.086Z,11.10
2023-04-22T03:34:11.428Z,9.20
2023-04-22T03:36:39.525Z,10.00
2023-04-22T03:39:07.570Z,8.40
2023-04-22T03:41:35.766Z,8.20
2023-04-22T03:44:03.799Z,8.70
2023-04-22T03:46:33.793Z,7.40
2023-04-22T03:49:10.332Z,8.60
2023-04-22T03:51:38.276Z,8.80
2023-04-22T03:54:09.738Z,8.70
2023-04-22T03:56:41.254Z,8.30
2023-04-22T03:59:09.233Z,8.70
2023-04-22T04:01:37.457Z,8.40
2023-04-22T04:04:07.791Z,7.30
2023-04-22T04:06:53.151Z,7.70
2023-04-22T04:09:21.102Z,8.10
2023-04-22T04:11:49.191Z,8.00
2023-04-22T04:14:17.525Z,8.50
2023-04-22T04:16:49.819Z,8.50
2023-04-22T04:19:25.286Z,8.40
2023-04-22T04:21:54.344Z,8.00
2023-04-22T04:24:23.999Z,8.20
2023-04-22T04:26:53.758Z,7.80
2023-04-22T04:29:27.126Z,7.90
2023-04-22T04:32:10.179Z,7.80
2023-04-22T04:34:38.256Z,6.70
2023-04-22T04:37:06.895Z,7.80
2023-04-22T04:39:50.092Z,7.70
2023-04-22T04:42:20.495Z,7.70
2023-04-22T04:44:53.865Z,8.80
2023-04-22T04:47:22.798Z,8.00
2023-04-22T04:49:54.051Z,8.30
2023-04-22T04:52:23.556Z,7.90
2023-04-22T04:54:53.568Z,8.20
2023-04-22T04:57:21.679Z,8.10
2023-04-22T04:59:50.408Z,8.10
2023-04-22T05:02:19.625Z,7.70
2023-04-22T05:04:48.156Z,7.40
2023-04-22T05:07:16.416Z,6.50
2023-04-22T05:09:45.758Z,7.00
2023-04-22T05:12:14.325Z,8.90
2023-04-22T05:14:44.825Z,7.60
2023-04-22T05:17:14.617Z,8.40
2023-04-22T05:19:44.167Z,8.20
2023-04-22T05:22:12.591Z,9.00
2023-04-22T05:24:40.978Z,8.20
2023-04-22T05:27:09.361Z,8.80
2023-04-22T05:29:37.883Z,8.50
2023-04-22T05:32:09.906Z,8.50
2023-04-22T05:34:40.038Z,7.10
2023-04-22T05:37:08.449Z,7.90
2023-04-22T05:39:37.233Z,7.70
2023-04-22T05:42:07.181Z,7.10
2023-04-22T05:44:35.804Z,7.60
2023-04-22T05:47:04.353Z,6.90
2023-04-22T05:49:32.663Z,8.10
2023-04-22T05:52:21.091Z,7.30
2023-04-22T05:55:12.563Z,7.60
2023-04-22T05:57:40.908Z,7.10
2023-04-22T06:00:16.765Z,7.60
2023-04-22T06:02:45.186Z,7.40
2023-04-22T06:05:13.908Z,7.50
2023-04-22T06:07:42.349Z,7.20
2023-04-22T06:10:10.475Z,11.50
2023-04-22T06:12:38.950Z,12.40
2023-04-22T06:15:07.227Z,8.30
2023-04-22T06:17:36.279Z,7.50
2023-04-22T06:20:04.926Z,8.60
2023-04-22T06:22:33.222Z,8.10
2023-04-22T06:25:01.307Z,7.90
2023-04-22T06:27:29.368Z,8.90
2023-04-22T06:29:57.784Z,8.50
2023-04-22T06:32:25.976Z,10.90
2023-04-22T06:34:53.944Z,11.00
2023-04-22T06:37:21.890Z,11.40
2023-04-22T06:39:50.266Z,13.00
2023-04-22T06:42:47.190Z,8.90
2023-04-22T06:45:21.312Z,8.30
2023-04-22T06:48:07.864Z,7.90
2023-04-22T06:50:47.559Z,11.30
2023-04-22T06:53:15.589Z,8.20
2023-04-22T06:55:43.650Z,10.20
2023-04-22T06:58:11.895Z,15.00
2023-04-22T07:00:40.204Z,13.50
2023-04-22T07:03:08.646Z,8.80
2023-04-22T07:05:37.855Z,11.90
2023-04-22T07:08:07.324Z,14.90
2023-04-22T07:10:35.935Z,12.30
2023-04-22T07:13:44.793Z,8.90
2023-04-22T07:16:13.155Z,9.10
2023-04-22T07:18:41.165Z,10.70
2023-04-22T07:21:09.081Z,8.60
2023-04-22T07:23:37.051Z,8.60
2023-04-22T07:26:05.374Z,9.20
2023-04-22T07:28:34.468Z,8.40
2023-04-22T07:31:03.136Z,8.70
2023-04-22T07:33:31.162Z,8.60
2023-04-22T07:35:59.166Z,8.70
2023-04-22T07:38:27.175Z,8.00
2023-04-22T07:40:55.120Z,7.90
2023-04-22T07:43:23.075Z,8.00
2023-04-22T07:45:51.518Z,7.80
2023-04-22T07:48:19.557Z,8.80
2023-04-22T07:50:47.636Z,8.60
2023-04-22T07:53:17.577Z,8.60
2023-04-22T07:55:46.719Z,7.80
2023-04-22T07:58:14.753Z,8.70
2023-04-22T08:00:42.756Z,9.10
2023-04-22T08:03:11.529Z,8.40
2023-04-22T08:05:39.792Z,9.00
2023-04-22T08:08:08.001Z,9.10
2023-04-22T08:10:36.038Z,8.10
2023-04-22T08:13:04.204Z,8.10
2023-04-22T08:15:32.271Z,9.20
2023-04-22T08:18:00.169Z,8.40
2023-04-22T08:20:28.245Z,7.60
2023-04-22T08:23:00.501Z,8.40
2023-04-22T08:25:28.713Z,8.80
2023-04-22T08:27:59.126Z,9.30
2023-04-22T08:30:27.160Z,8.00
2023-04-22T08:32:55.282Z,8.60
2023-04-22T08:35:23.315Z,8.20
2023-04-22T08:37:51.305Z,8.60
2023-04-22T08:40:19.244Z,8.70
2023-04-22T08:42:47.357Z,8.80
2023-04-22T08:45:15.402Z,9.20
2023-04-22T08:47:43.421Z,8.90
2023-04-22T08:50:11.782Z,8.40
2023-04-22T08:52:39.795Z,8.40
2023-04-22T08:55:08.053Z,8.80
2023-04-22T08:57:36.424Z,8.20
2023-04-22T09:00:04.733Z,8.60
2023-04-22T09:02:33.432Z,8.10
2023-04-22T09:05:01.844Z,8.50
2023-04-22T09:07:30.704Z,8.50
2023-04-22T09:09:58.762Z,7.90
2023-04-22T09:12:27.194Z,7.50
2023-04-22T09:14:55.379Z,8.80
2023-04-22T09:17:33.393Z,8.00
2023-04-22T09:20:02.044Z,8.10
2023-04-22T09:22:37.216Z,11.60
2023-04-22T09:25:06.645Z,8.00
2023-04-22T09:27:35.013Z,7.40
2023-04-22T09:30:03.931Z,8.50
2023-04-22T09:32:32.216Z,8.10
2023-04-22T09:35:00.230Z,8.30
2023-04-22T09:37:36.088Z,8.10
2023-04-22T09:40:16.099Z,6.70
2023-04-22T09:42:58.484Z,7.40
2023-04-22T09:45:34.077Z,6.90
2023-04-22T09:48:23.701Z,6.90
2023-04-22T09:50:51.789Z,7.30
2023-04-22T09:53:20.293Z,7.60
2023-04-22T09:55:49.365Z,6.70
2023-04-22T09:58:18.224Z,6.80
2023-04-22T10:00:57.056Z,6.90
2023-04-22T10:03:25.358Z,7.30
2023-04-22T10:05:53.662Z,6.20
2023-04-22T10:08:21.977Z,6.60
2023-04-22T10:10:50.161Z,7.30
2023-04-22T10:13:18.203Z,6.20
2023-04-22T10:15:51.023Z,7.00
2023-04-22T10:18:20.054Z,7.00
2023-04-22T10:20:50.049Z,8.80
2023-04-22T10:23:21.638Z,7.80
2023-04-22T10:25:52.653Z,7.40
2023-04-22T10:28:21.500Z,7.20
2023-04-22T10:30:50.493Z,8.40
2023-04-22T10:33:22.343Z,8.60
2023-04-22T10:36:05.533Z,8.00
2023-04-22T10:38:34.480Z,8.00
2023-04-22T10:41:03.998Z,7.80
2023-04-22T10:43:40.900Z,8.70
2023-04-22T10:46:28.817Z,7.30
2023-04-22T10:48:56.884Z,7.30
2023-04-22T10:51:40.741Z,7.00
2023-04-22T10:54:37.639Z,7.10
2023-04-22T10:57:08.642Z,7.30
2023-04-22T10:59:44.305Z,7.10
2023-04-22T11:02:14.395Z,6.40
2023-04-22T11:04:42.713Z,6.90
2023-04-22T11:07:26.708Z,6.90
2023-04-22T11:10:07.769Z,7.10
2023-04-22T11:12:35.945Z,7.30
2023-04-22T11:15:06.362Z,6.40
2023-04-22T11:17:35.272Z,7.10
2023-04-22T11:20:04.922Z,6.10
2023-04-22T11:22:44.723Z,6.80
2023-04-22T11:25:12.881Z,6.30
2023-04-22T11:27:41.449Z,6.70
2023-04-22T11:30:09.818Z,7.20
2023-04-22T11:32:39.475Z,6.80
2023-04-22T11:35:08.465Z,6.60
2023-04-22T11:37:47.099Z,5.60
2023-04-22T11:40:30.224Z,6.00
2023-04-22T11:43:00.553Z,6.70
2023-04-22T11:45:29.449Z,7.10
2023-04-22T11:47:57.701Z,6.60
2023-04-22T11:50:26.811Z,6.90
2023-04-22T11:52:59.146Z,7.10
2023-04-22T11:55:31.698Z,6.50
2023-04-22T11:58:27.340Z,6.50
2023-04-22T12:00:56.422Z,7.10
2023-04-22T12:03:25.078Z,7.30
2023-04-22T12:05:53.990Z,6.40
2023-04-22T12:08:22.840Z,6.20
2023-04-22T12:10:51.412Z,6.20
2023-04-22T12:13:20.200Z,6.20
2023-04-22T12:15:48.434Z,6.20
2023-04-22T12:18:16.488Z,5.80
2023-04-22T12:20:44.552Z,5.60
2023-04-22T12:23:13.919Z,5.30
2023-04-22T12:25:42.016Z,5.90
2023-04-22T12:28:10.506Z,5.00
2023-04-22T12:30:39.116Z,5.90
2023-04-22T12:33:07.189Z,6.10
2023-04-22T12:35:35.743Z,5.40
2023-04-22T12:38:03.704Z,5.00
2023-04-22T12:40:31.676Z,5.60
2023-04-22T12:42:59.956Z,5.50
2023-04-22T12:45:27.902Z,5.60
2023-04-22T12:47:56.308Z,5.80
2023-04-22T12:50:24.272Z,5.30
2023-04-22T12:52:52.278Z,5.70
2023-04-22T12:55:21.126Z,4.70
2023-04-22T12:57:49.484Z,4.80
2023-04-22T13:00:17.667Z,4.60
2023-04-22T13:02:47.037Z,3.80
2023-04-22T13:05:15.841Z,4.20
2023-04-22T13:07:45.429Z,4.50
2023-04-22T13:10:15.465Z,4.70
2023-04-22T13:12:43.846Z,4.40
2023-04-22T13:15:11.792Z,4.30
2023-04-22T13:17:40.309Z,4.30
2023-04-22T13:20:09.729Z,4.40
2023-04-22T13:22:38.839Z,4.20
2023-04-22T13:25:10.058Z,4.50
2023-04-22T13:27:38.181Z,4.70
2023-04-22T13:30:07.510Z,4.90
2023-04-22T13:32:35.515Z,4.70
2023-04-22T13:35:03.510Z,4.50
2023-04-22T13:37:31.833Z,4.20
2023-04-22T13:39:59.838Z,4.40
2023-04-22T13:42:27.930Z,4.20
2023-04-22T13:44:55.936Z,4.10
2023-04-22T13:47:23.947Z,4.10
2023-04-22T13:49:52.052Z,4.80
2023-04-22T13:52:20.170Z,3.80
2023-04-22T13:54:48.164Z,4.20
2023-04-22T13:57:16.326Z,3.70
2023-04-22T13:59:44.815Z,3.60
2023-04-22T14:02:12.828Z,3.90
2023-04-22T14:04:41.289Z,4.00
2023-04-22T14:07:09.361Z,3.50
2023-04-22T14:09:37.441Z,3.40
2023-04-22T14:12:06.352Z,4.20
2023-04-22T14:14:34.681Z,3.50
2023-04-22T14:17:03.231Z,3.30
2023-04-22T14:20:57.922Z,3.30
2023-04-22T14:23:25.165Z,3.10
2023-04-22T14:25:51.853Z,3.50
2023-04-22T14:28:19.160Z,3.10
2023-04-22T14:30:45.790Z,2.90
2023-04-22T14:33:12.699Z,2.90
2023-04-22T14:35:39.500Z,3.40
2023-04-22T14:38:07.452Z,2.70
2023-04-22T14:46:47.688Z,3.50
2023-04-22T14:49:14.394Z,3.00
2023-04-22T14:51:41.063Z,3.30
2023-04-22T14:54:07.922Z,3.30
2023-04-22T14:56:35.592Z,2.60
2023-04-22T14:59:02.294Z,3.00
2023-04-22T15:01:29.068Z,3.30
2023-04-22T15:03:56.264Z,2.50
2023-04-22T15:06:23.584Z,4.70
2023-04-22T15:08:53.450Z,4.20
2023-04-22T15:11:20.391Z,3.80
2023-04-22T15:13:48.130Z,3.80
2023-04-22T15:16:14.888Z,4.00
2023-04-22T15:18:42.411Z,3.30
2023-04-22T15:21:10.038Z,3.20
2023-04-22T15:23:36.753Z,2.60
2023-04-22T15:26:03.547Z,2.30
2023-04-22T15:28:30.426Z,2.00
2023-04-22T15:30:57.065Z,2.20
2023-04-22T15:33:23.792Z,2.00
2023-04-22T15:35:50.790Z,2.80
2023-04-22T15:38:17.642Z,2.80
2023-04-22T15:40:44.472Z,2.60
2023-04-22T15:43:11.358Z,3.00
2023-04-22T15:45:38.041Z,3.10
2023-04-22T15:48:05.384Z,2.70
2023-04-22T15:50:33.310Z,2.90
2023-04-22T15:53:00.030Z,4.90
2023-04-22T15:55:26.716Z,2.70
2023-04-22T15:57:53.359Z,3.30
2023-04-22T16:00:20.683Z,3.60
2023-04-22T16:02:54.511Z,4.00
2023-04-22T16:05:24.394Z,4.00
2023-04-22T16:07:52.416Z,5.10
2023-04-22T16:10:19.753Z,3.50
2023-04-22T16:12:46.681Z,4.30
2023-04-22T16:15:13.396Z,12.00
2023-04-22T16:17:40.862Z,13.60
2023-04-22T16:20:08.914Z,11.60
2023-04-22T16:22:36.517Z,9.20
2023-04-22T16:25:03.615Z,8.10
2023-04-22T16:27:31.203Z,7.10
2023-04-22T16:29:57.855Z,5.50
2023-04-22T16:32:24.640Z,4.10
2023-04-22T16:34:51.391Z,4.40
2023-04-22T16:37:18.066Z,3.50
2023-04-22T16:39:44.813Z,13.20
2023-04-22T16:42:11.666Z,6.40
2023-04-22T16:44:38.272Z,4.10
2023-04-22T16:47:04.899Z,4.20
2023-04-22T16:49:32.022Z,4.30
2023-04-22T16:51:58.710Z,4.40
2023-04-22T16:54:25.446Z,4.70
2023-04-22T16:56:52.240Z,6.20
2023-04-22T16:59:19.061Z,6.20
2023-04-22T17:01:45.872Z,5.00
2023-04-22T17:04:12.933Z,5.40
2023-04-22T17:06:40.416Z,6.10
2023-04-22T17:09:07.084Z,5.90
2023-04-22T17:11:33.711Z,5.30
2023-04-22T17:14:00.510Z,6.30
2023-04-22T17:16:27.438Z,6.70
2023-04-22T17:18:54.230Z,6.90
2023-04-22T17:21:22.747Z,11.90
2023-04-22T17:23:49.815Z,18.90
2023-04-22T17:26:16.492Z,16.50
2023-04-22T17:28:43.140Z,15.20
2023-04-22T17:31:10.483Z,11.80
2023-04-22T17:33:37.220Z,11.10
2023-04-22T17:36:04.404Z,11.20
2023-04-22T17:38:31.421Z,10.20
2023-04-22T17:40:58.213Z,11.30
2023-04-22T17:43:25.564Z,11.30
2023-04-22T17:45:52.501Z,11.50
2023-04-22T17:48:20.032Z,10.60
2023-04-22T17:50:47.267Z,12.20
2023-04-22T17:53:14.128Z,11.40
2023-04-22T17:55:40.984Z,11.90
2023-04-22T17:58:07.827Z,12.00
2023-04-22T18:00:35.095Z,11.40
2023-04-22T18:03:02.211Z,11.90
2023-04-22T18:05:29.245Z,11.90
2023-04-22T18:08:03.674Z,11.50
2023-04-22T18:10:30.612Z,11.40
2023-04-22T18:12:57.314Z,10.30
2023-04-22T18:15:24.950Z,11.20
2023-04-22T18:17:51.823Z,10.40
2023-04-22T18:20:19.078Z,11.20
2023-04-22T18:22:47.127Z,11.70
2023-04-22T18:25:14.023Z,11.60
2023-04-22T18:27:41.030Z,9.70
2023-04-22T18:30:08.118Z,9.80
2023-04-22T18:32:36.666Z,9.70
2023-04-22T18:35:04.062Z,10.70
2023-04-22T18:37:32.087Z,12.90
2023-04-22T18:39:58.925Z,12.80
2023-04-22T18:42:25.620Z,11.30
2023-04-22T18:44:52.399Z,12.30
2023-04-22T18:47:19.072Z,12.10
2023-04-22T18:49:46.163Z,11.80
2023-04-22T18:52:12.942Z,12.20
2023-04-22T18:54:40.353Z,12.70
2023-04-22T18:57:07.988Z,21.50
2023-04-22T18:59:35.250Z,16.30
2023-04-22T19:02:02.022Z,19.10
2023-04-22T19:04:28.893Z,17.00
2023-04-22T19:06:56.443Z,15.20
2023-04-22T19:09:23.401Z,13.80
2023-04-22T19:11:50.233Z,11.80
2023-04-22T19:14:17.043Z,11.60
2023-04-22T19:16:43.837Z,11.80
2023-04-22T19:19:11.516Z,12.30
2023-04-22T19:21:38.704Z,13.70
2023-04-22T19:24:05.726Z,13.60
2023-04-22T19:26:32.543Z,14.90
2023-04-22T19:28:59.207Z,15.40
2023-04-22T19:31:27.539Z,16.20
2023-04-22T19:33:54.272Z,16.70
2023-04-22T19:36:20.938Z,15.80
2023-04-22T19:38:47.658Z,16.20
2023-04-22T19:41:14.363Z,16.50
2023-04-22T19:43:41.093Z,15.80
2023-04-22T19:46:07.914Z,16.60
2023-04-22T19:48:35.580Z,17.20
2023-04-22T19:51:02.523Z,19.00
2023-04-22T19:53:30.538Z,18.20
2023-04-22T19:55:57.323Z,18.30
2023-04-22T19:58:24.565Z,19.60
2023-04-22T20:00:51.649Z,20.10
2023-04-22T20:03:19.176Z,21.10
2023-04-22T20:05:46.070Z,21.40
2023-04-22T20:08:13.067Z,21.30
2023-04-22T20:10:39.965Z,21.70
2023-04-22T20:13:06.996Z,20.50
2023-04-22T20:15:35.626Z,21.20
2023-04-22T20:18:02.720Z,18.60
2023-04-22T20:20:30.417Z,21.10
2023-04-22T20:22:57.107Z,21.80
2023-04-22T20:25:24.433Z,21.90
2023-04-22T20:27:51.112Z,20.60
2023-04-22T20:30:18.455Z,21.30
2023-04-22T20:32:45.446Z,22.00
2023-04-22T20:35:14.374Z,23.40
2023-04-22T20:37:41.286Z,23.40
2023-04-22T20:40:08.547Z,25.00
2023-04-22T20:42:36.411Z,23.90
2023-04-22T20:45:04.789Z,22.70
2023-04-22T20:47:31.924Z,20.10
2023-04-22T20:49:58.734Z,20.00
2023-04-22T20:52:25.455Z,18.70
2023-04-22T20:54:54.627Z,20.10
2023-04-22T20:57:21.373Z,19.50
2023-04-22T20:59:48.049Z,21.20
2023-04-22T21:02:15.961Z,23.30
2023-04-22T21:04:43.238Z,20.30
2023-04-22T21:07:13.840Z,19.40
2023-04-22T21:09:41.041Z,18.10
2023-04-22T21:12:09.805Z,17.70
2023-04-22T21:14:38.814Z,17.20
2023-04-22T21:17:33.393Z,16.60
2023-04-22T21:20:00.170Z,18.80
2023-04-22T21:22:26.967Z,18.20
2023-04-22T21:24:53.942Z,18.90
2023-04-22T21:27:21.274Z,16.10
2023-04-22T21:29:48.865Z,17.80
2023-04-22T21:32:15.821Z,15.80
2023-04-22T21:34:44.403Z,16.60
2023-04-22T21:37:11.792Z,17.00
2023-04-22T21:39:39.349Z,19.80
2023-04-22T21:42:07.368Z,21.70
2023-04-22T21:44:35.650Z,21.80
2023-04-22T21:47:02.795Z,21.10
2023-04-22T21:49:29.528Z,20.60
2023-04-22T21:51:56.587Z,20.90
2023-04-22T21:54:23.292Z,23.50
2023-04-22T21:56:50.157Z,22.60
2023-04-22T21:59:16.878Z,21.20
2023-04-22T22:01:43.700Z,22.80
2023-04-22T22:06:38.660Z,20.10
2023-04-22T22:09:06.587Z,20.20
2023-04-22T22:11:33.270Z,21.60
2023-04-22T22:14:00.025Z,20.60
2023-04-22T22:16:26.780Z,20.30
2023-04-22T22:18:55.145Z,20.50
2023-04-22T22:21:21.940Z,21.40
2023-04-22T22:23:48.675Z,20.50
2023-04-22T22:26:15.336Z,19.00
2023-04-22T22:28:42.120Z,18.10
2023-04-22T22:31:08.821Z,16.80
2023-04-22T22:33:35.602Z,17.10
2023-04-22T22:36:02.389Z,16.70
2023-04-22T22:38:29.195Z,16.40
2023-04-22T22:40:55.820Z,15.20
2023-04-22T22:43:22.812Z,16.10
2023-04-22T22:45:49.490Z,17.40
2023-04-22T22:48:16.474Z,15.40
2023-04-22T22:50:43.428Z,18.50
2023-04-22T22:53:10.123Z,19.00
2023-04-22T22:55:36.877Z,15.80
2023-04-22T22:58:03.632Z,15.10
2023-04-22T23:00:30.537Z,14.70
2023-04-22T23:02:57.332Z,13.30
2023-04-22T23:05:24.250Z,12.80
2023-04-22T23:07:51.037Z,13.20
2023-04-22T23:10:17.700Z,15.30
2023-04-22T23:12:44.448Z,15.20
2023-04-22T23:15:11.243Z,14.70
2023-04-22T23:17:38.351Z,15.50
2023-04-22T23:20:08.757Z,16.50
2023-04-22T23:22:37.658Z,16.50
2023-04-22T23:25:05.822Z,15.50
2023-04-22T23:27:33.109Z,13.70
2023-04-22T23:30:00.214Z,14.30
2023-04-22T23:32:26.891Z,13.40
2023-04-22T23:34:53.588Z,13.70
2023-04-22T23:37:20.879Z,15.50
2023-04-22T23:39:47.529Z,15.60
2023-04-22T23:42:14.278Z,14.20
2023-04-22T23:44:41.181Z,15.20
2023-04-22T23:47:08.246Z,15.30
2023-04-22T23:49:34.980Z,15.90
2023-04-22T23:52:01.724Z,14.80
2023-04-22T23:54:29.595Z,14.90
2023-04-22T23:56:57.454Z,16.10
2023-04-22T23:59:24.474Z,14.60
